Time;durP1;ratioP1;P1;durP2;ratioP2;P2;SDS_P1;SDS_P2;PMS_P1;PMS_P2;Temp;Humidity;BMP_temperature;BMP_pressure;BME280_temperature;BME280_humidity;BME280_pressure;Samples;Min_cycle;Max_cycle;Signal;HPM_P1;HPM_P2
2023/08/07 00:00:27;;;;;;;8.15;3.60;;;;;;;;;;5074809;28;20040;-77
2023/08/07 00:02:53;;;;;;;6.28;3.15;;;;;;;;;;5072967;28;20048;-77
2023/08/07 00:05:19;;;;;;;7.38;3.30;;;;;;;;;;5088453;28;20062;-77
2023/08/07 00:07:45;;;;;;;5.93;2.90;;;;;;;;;;5080671;28;20028;-77
2023/08/07 00:10:11;;;;;;;6.45;2.88;;;;;;;;;;5071026;28;20055;-77
2023/08/07 00:12:37;;;;;;;7.38;3.55;;;;;;;;;;5094532;28;20135;-77
2023/08/07 00:15:04;;;;;;;9.32;3.28;;;;;;;;;;5076770;28;20585;-77
2023/08/07 00:17:29;;;;;;;8.15;4.45;;;15.40;99.90;;;;;;5095027;28;20051;-77
2023/08/07 00:19:55;;;;;;;6.60;3.25;;;15.20;99.90;;;;;;5095810;28;20052;-78
2023/08/07 00:22:21;;;;;;;7.40;3.20;;;;;;;;;;5094498;28;20047;-77
2023/08/07 00:24:47;;;;;;;7.95;2.78;;;;;;;;;;5096071;28;20039;-77
2023/08/07 00:27:14;;;;;;;8.88;3.50;;;;;;;;;;5092196;28;20036;-77
2023/08/07 00:29:40;;;;;;;8.13;3.17;;;;;;;;;;5089550;28;20055;-79
2023/08/07 00:32:06;;;;;;;7.13;3.28;;;;;;;;;;5088188;28;20048;-79
2023/08/07 00:34:31;;;;;;;5.00;3.15;;;15.30;99.90;;;;;;5092694;28;20052;-79
2023/08/07 00:36:57;;;;;;;7.40;3.53;;;15.40;99.90;;;;;;5093805;28;20779;-80
2023/08/07 00:39:23;;;;;;;6.28;3.45;;;15.30;99.90;;;;;;5086638;28;20040;-79
2023/08/07 00:41:49;;;;;;;7.35;3.38;;;;;;;;;;5087296;28;20036;-80
2023/08/07 00:44:14;;;;;;;8.45;3.60;;;15.10;99.90;;;;;;5084614;28;20493;-79
2023/08/07 00:46:41;;;;;;;7.38;2.92;;;15.30;99.90;;;;;;5093196;28;20122;-80
2023/08/07 00:49:09;;;;;;;6.30;3.53;;;15.30;99.90;;;;;;5092805;28;20036;-79
2023/08/07 00:51:36;;;;;;;7.72;3.22;;;15.20;99.90;;;;;;5093499;28;20047;-78
2023/08/07 00:54:03;;;;;;;4.03;2.83;;;15.20;99.90;;;;;;5091455;28;20040;-79
2023/08/07 00:56:30;;;;;;;7.68;2.83;;;;;;;;;;5093200;28;20400;-80
2023/08/07 00:58:56;;;;;;;7.68;3.00;;;;;;;;;;5074694;28;20060;-79
2023/08/07 01:01:22;;;;;;;8.15;2.47;;;;;;;;;;5093424;28;20115;-80
2023/08/07 01:03:47;;;;;;;7.53;2.95;;;15.10;99.90;;;;;;5093405;28;20063;-80
2023/08/07 01:06:13;;;;;;;5.95;2.38;;;;;;;;;;5093151;28;20090;-78
2023/08/07 01:08:39;;;;;;;6.25;2.70;;;;;;;;;;5091134;28;20040;-79
2023/08/07 01:11:34;;;;;;;5.95;2.30;;;15.00;99.90;;;;;;5101239;28;20097;-81
2023/08/07 01:14:06;;;;;;;7.45;3.25;;;15.00;99.90;;;;;;5079736;28;20036;-79
2023/08/07 01:16:42;;;;;;;11.52;3.13;;;14.70;99.90;;;;;;5085895;28;20073;-80
2023/08/07 01:19:16;;;;;;;7.45;2.03;;;14.90;99.90;;;;;;5103082;28;20119;-80
2023/08/07 01:21:48;;;;;;;7.20;2.03;;;14.90;99.90;;;;;;5074597;28;20421;-79
2023/08/07 01:24:14;;;;;;;8.45;2.00;;;;;;;;;;5093249;28;20055;-79
2023/08/07 01:26:42;;;;;;;7.38;1.90;;;15.00;99.90;;;;;;5096858;28;20046;-80
2023/08/07 01:29:26;;;;;;;8.88;2.33;;;14.90;99.90;;;;;;5082054;28;20047;-79
2023/08/07 01:31:55;;;;;;;8.55;2.92;;;14.90;99.90;;;;;;5081989;28;20146;-80
2023/08/07 01:34:23;;;;;;;8.18;2.15;;;15.10;99.90;;;;;;5097035;28;20051;-79
2023/08/07 01:36:50;;;;;;;8.13;2.33;;;15.00;99.90;;;;;;5083053;28;20106;-79
2023/08/07 01:39:19;;;;;;;6.75;1.52;;;14.80;99.90;;;;;;5099985;28;20119;-79
2023/08/07 01:41:46;;;;;;;8.85;2.30;;;14.80;99.90;;;;;;5076151;28;20040;-78
2023/08/07 01:44:12;;;;;;;7.80;1.80;;;14.60;99.90;;;;;;5082881;28;20084;-78
2023/08/07 01:46:38;;;;;;;11.05;1.83;;;14.50;99.90;;;;;;5082847;28;20036;-78
2023/08/07 01:49:04;;;;;;;11.93;2.60;;;;;;;;;;5081487;28;20062;-77
2023/08/07 01:51:30;;;;;;;8.23;2.30;;;;;;;;;;5086417;28;20043;-78
2023/08/07 01:53:56;;;;;;;7.18;2.22;;;;;;;;;;5102477;28;20051;-77
2023/08/07 01:56:22;;;;;;;9.70;3.17;;;14.60;99.90;;;;;;5075314;28;20036;-78
2023/08/07 01:58:48;;;;;;;7.10;1.80;;;;;;;;;;5081566;28;20038;-78
2023/08/07 02:01:13;;;;;;;4.78;1.77;;;14.20;99.90;;;;;;5105358;28;20036;-78
2023/08/07 02:03:39;;;;;;;10.30;2.38;;;;;;;;;;5085623;28;20036;-78
2023/08/07 02:06:05;;;;;;;8.50;2.40;;;;;;;;;;5075516;28;20756;-78
2023/08/07 02:08:31;;;;;;;8.43;2.15;;;;;;;;;;5096332;28;20096;-78
2023/08/07 02:10:57;;;;;;;7.25;2.30;;;14.20;99.90;;;;;;5093791;28;20654;-78
2023/08/07 02:13:23;;;;;;;5.88;1.80;;;;;;;;;;5088903;28;20044;-78
2023/08/07 02:15:49;;;;;;;8.15;1.70;;;;;;;;;;5093381;28;20044;-78
2023/08/07 02:18:14;;;;;;;9.93;1.77;;;14.10;99.90;;;;;;5073241;28;20044;-78
2023/08/07 02:20:40;;;;;;;7.13;2.50;;;14.20;99.90;;;;;;5061993;28;20067;-78
2023/08/07 02:23:06;;;;;;;8.77;1.88;;;;;;;;;;5092135;28;20044;-77
2023/08/07 02:25:32;;;;;;;11.77;2.17;;;;;;;;;;5079379;28;20040;-78
2023/08/07 02:27:57;;;;;;;11.18;2.10;;;14.00;99.90;;;;;;5093507;28;20043;-79
2023/08/07 02:30:23;;;;;;;10.20;1.98;;;;;;;;;;5076746;28;20131;-78
2023/08/07 02:32:49;;;;;;;7.60;1.75;;;14.10;99.90;;;;;;5092507;28;20048;-78
2023/08/07 02:35:15;;;;;;;11.40;2.13;;;14.20;99.90;;;;;;5084864;28;20036;-78
2023/08/07 02:37:41;;;;;;;8.25;1.75;;;;;;;;;;5077825;28;20047;-76
2023/08/07 02:40:07;;;;;;;10.32;2.15;;;;;;;;;;5090953;28;20036;-78
2023/08/07 02:42:33;;;;;;;8.40;1.90;;;;;;;;;;5063864;28;20933;-78
2023/08/07 02:44:59;;;;;;;9.02;1.73;;;;;;;;;;5074394;28;20127;-77
2023/08/07 02:47:25;;;;;;;11.82;1.85;;;14.00;99.90;;;;;;5092962;28;20085;-78
2023/08/07 02:49:50;;;;;;;8.18;1.98;;;14.00;99.90;;;;;;5083254;28;20083;-78
2023/08/07 02:52:16;;;;;;;8.45;1.85;;;;;;;;;;5083446;28;20097;-77
2023/08/07 02:54:42;;;;;;;5.78;1.63;;;;;;;;;;5074202;28;20044;-78
2023/08/07 02:57:08;;;;;;;9.27;2.15;;;14.00;99.90;;;;;;5074271;28;20044;-78
2023/08/07 02:59:34;;;;;;;7.93;1.60;;;;;;;;;;5059611;28;20044;-78
2023/08/07 03:02:00;;;;;;;9.43;1.38;;;;;;;;;;5062387;28;20109;-77
2023/08/07 03:04:25;;;;;;;5.65;1.80;;;14.00;99.90;;;;;;5062083;28;20044;-78
2023/08/07 03:06:51;;;;;;;6.90;2.67;;;;;;;;;;5076351;28;20474;-78
2023/08/07 03:09:18;;;;;;;6.93;1.63;;;;;;;;;;5058150;28;20127;-78
2023/08/07 03:11:44;;;;;;;10.80;2.20;;;;;;;;;;5064065;28;20108;-78
2023/08/07 03:14:10;;;;;;;8.25;1.92;;;;;;;;;;5084168;28;20197;-78
2023/08/07 03:16:35;;;;;;;9.70;2.28;;;14.00;99.90;;;;;;5082064;28;20040;-78
2023/08/07 03:19:01;;;;;;;8.90;2.40;;;;;;;;;;5077037;28;20040;-78
2023/08/07 03:21:27;;;;;;;12.35;1.90;;;;;;;;;;5075117;28;20584;-79
2023/08/07 03:23:53;;;;;;;8.07;2.50;;;14.10;99.90;;;;;;5077149;28;20228;-78
2023/08/07 03:26:19;;;;;;;11.35;2.30;;;;;;;;;;5075940;28;20044;-78
2023/08/07 03:28:46;;;;;;;9.55;2.35;;;;;;;;;;5077812;28;20089;-77
2023/08/07 03:31:12;;;;;;;12.77;2.13;;;14.10;99.90;;;;;;5082615;28;20050;-79
2023/08/07 03:33:38;;;;;;;13.10;3.13;;;14.30;99.90;;;;;;5081976;28;20377;-79
2023/08/07 03:36:04;;;;;;;9.88;2.25;;;;;;;;;;5078901;28;20060;-78
2023/08/07 03:38:30;;;;;;;9.55;2.20;;;;;;;;;;5083553;28;20041;-79
2023/08/07 03:40:56;;;;;;;7.20;2.13;;;;;;;;;;5092250;28;20051;-79
2023/08/07 03:43:21;;;;;;;9.35;2.10;;;14.50;99.90;;;;;;5081828;28;20031;-78
2023/08/07 03:45:47;;;;;;;9.27;1.83;;;;;;;;;;5087791;28;20100;-78
2023/08/07 03:48:13;;;;;;;4.53;1.75;;;;;;;;;;5096559;28;20043;-79
2023/08/07 03:50:39;;;;;;;4.65;1.45;;;;;;;;;;5081112;28;20049;-77
2023/08/07 03:53:07;;;;;;;5.25;1.70;;;14.60;99.90;;;;;;5076687;28;20105;-77
2023/08/07 03:55:33;;;;;;;5.15;1.40;;;;;;;;;;5094408;28;20085;-78
2023/08/07 03:57:59;;;;;;;4.03;1.60;;;;;;;;;;5081586;28;20475;-79
2023/08/07 04:00:25;;;;;;;8.23;2.33;;;;;;;;;;5079250;28;20040;-77
2023/08/07 04:02:50;;;;;;;10.15;2.55;;;;;;;;;;5092399;28;20047;-78
2023/08/07 04:05:16;;;;;;;8.68;2.33;;;14.50;99.90;;;;;;5080218;28;20035;-78
2023/08/07 04:07:42;;;;;;;7.18;2.40;;;14.50;99.90;;;;;;5078230;28;20444;-78
2023/08/07 04:10:08;;;;;;;7.57;2.38;;;14.60;99.90;;;;;;5106317;28;20067;-78
2023/08/07 04:12:34;;;;;;;5.60;2.50;;;;;;;;;;5082962;28;20055;-78
2023/08/07 04:14:59;;;;;;;9.98;3.45;;;;;;;;;;5063732;28;20044;-79
2023/08/07 04:17:26;;;;;;;8.68;2.42;;;;;;;;;;5097361;28;20110;-78
2023/08/07 04:19:52;;;;;;;10.63;3.38;;;;;;;;;;5101861;28;20040;-78
2023/08/07 04:22:18;;;;;;;12.27;4.00;;;;;;;;;;5100448;28;20055;-78
2023/08/07 04:24:44;;;;;;;11.30;2.60;;;;;;;;;;5101501;28;20077;-78
2023/08/07 04:27:10;;;;;;;10.85;3.13;;;;;;;;;;5050305;28;20051;-79
2023/08/07 04:29:36;;;;;;;11.45;2.97;;;;;;;;;;5084664;28;20048;-78
2023/08/07 04:32:02;;;;;;;9.07;3.00;;;;;;;;;;5109027;28;20100;-78
2023/08/07 04:34:28;;;;;;;11.75;3.25;;;14.40;99.90;;;;;;5089807;28;20040;-77
2023/08/07 04:36:56;;;;;;;12.48;3.03;;;;;;;;;;5100019;28;20405;-79
2023/08/07 04:39:22;;;;;;;9.05;2.70;;;14.60;99.90;;;;;;5090180;28;20044;-79
2023/08/07 04:41:54;;;;;;;11.43;2.65;;;15.00;99.90;;;;;;5096009;28;20047;-83
2023/08/07 04:44:20;;;;;;;11.32;2.72;;;;;;;;;;5078658;28;20036;-77
2023/08/07 04:46:46;;;;;;;14.80;3.72;;;;;;;;;;5076022;28;20051;-76
2023/08/07 04:49:12;;;;;;;9.73;2.80;;;;;;;;;;5100154;28;20036;-78
2023/08/07 04:51:38;;;;;;;12.07;2.90;;;;;;;;;;5093931;28;20044;-77
2023/08/07 04:54:04;;;;;;;14.82;3.00;;;;;;;;;;5071143;28;20583;-78
2023/08/07 04:56:34;;;;;;;12.77;3.38;;;14.50;99.90;;;;;;5078793;28;20315;-78
2023/08/07 04:59:01;;;;;;;12.95;2.78;;;;;;;;;;5068643;28;20044;-74
2023/08/07 05:01:27;;;;;;;12.75;2.92;;;;;;;;;;5087796;28;20511;-74
2023/08/07 05:03:53;;;;;;;16.77;3.17;;;;;;;;;;5071996;28;20486;-78
2023/08/07 05:06:19;;;;;;;14.02;3.25;;;;;;;;;;5073954;28;20039;-78
2023/08/07 05:08:45;;;;;;;11.80;2.40;;;;;;;;;;5069649;28;20040;-77
2023/08/07 05:11:15;;;;;;;9.20;2.58;;;14.60;99.90;;;;;;5056140;28;20041;-78
2023/08/07 05:13:41;;;;;;;6.68;2.45;;;;;;;;;;5062866;28;20051;-74
2023/08/07 05:16:07;;;;;;;12.35;2.92;;;;;;;;;;5062793;28;20053;-72
2023/08/07 05:18:32;;;;;;;12.13;2.95;;;14.70;99.90;;;;;;5063202;28;20041;-76
2023/08/07 05:20:58;;;;;;;12.02;2.92;;;;;;;;;;5044196;28;20039;-75
2023/08/07 05:23:24;;;;;;;11.82;2.45;;;;;;;;;;5037229;28;20041;-75
2023/08/07 05:25:50;;;;;;;10.45;3.17;;;;;;;;;;5061101;28;20043;-75
2023/08/07 05:28:16;;;;;;;10.25;3.50;;;;;;;;;;5068516;28;20033;-74
2023/08/07 05:30:42;;;;;;;13.65;3.35;;;;;;;;;;5065668;28;20252;-72
2023/08/07 05:33:08;;;;;;;15.18;3.90;;;;;;;;;;5047063;28;20557;-75
2023/08/07 05:35:34;;;;;;;23.17;3.97;;;14.80;99.90;;;;;;5057570;28;20044;-75
2023/08/07 05:38:00;;;;;;;9.98;3.47;;;;;;;;;;5060491;28;20072;-74
2023/08/07 05:40:26;;;;;;;16.88;3.95;;;;;;;;;;5062025;28;20040;-75
2023/08/07 05:42:52;;;;;;;13.63;3.67;;;;;;;;;;5031133;28;20048;-74
2023/08/07 05:45:17;;;;;;;9.88;3.10;;;;;;;;;;5062645;28;20099;-74
2023/08/07 05:47:43;;;;;;;14.60;3.50;;;;;;;;;;5042472;28;20056;-75
2023/08/07 05:50:09;;;;;;;10.52;3.25;;;15.00;99.90;;;;;;5048153;28;20102;-75
2023/08/07 05:52:35;;;;;;;9.95;2.95;;;;;;;;;;5043813;28;20052;-77
2023/08/07 05:55:01;;;;;;;10.65;3.53;;;;;;;;;;5040070;28;20048;-77
2023/08/07 05:57:27;;;;;;;15.32;3.28;;;;;;;;;;5038989;28;20119;-73
2023/08/07 05:59:53;;;;;;;11.00;3.65;;;;;;;;;;5025870;28;20112;-75
2023/08/07 06:02:19;;;;;;;19.45;4.30;;;;;;;;;;5060601;28;20033;-77
2023/08/07 06:04:45;;;;;;;11.45;3.35;;;;;;;;;;5043868;28;20041;-76
2023/08/07 06:07:11;;;;;;;12.82;3.38;;;;;;;;;;5030969;28;20036;-75
2023/08/07 06:09:37;;;;;;;13.52;3.05;;;;;;;;;;5043115;28;20864;-76
2023/08/07 06:12:03;;;;;;;18.75;3.70;;;15.40;99.90;;;;;;5045431;28;20057;-76
2023/08/07 06:14:30;;;;;;;10.57;3.20;;;15.40;99.90;;;;;;5038798;28;20457;-76
2023/08/07 06:17:01;;;;;;;12.82;3.70;;;;;;;;;;5030143;28;20490;-74
2023/08/07 06:19:27;;;;;;;10.10;3.42;;;;;;;;;;5039186;28;20040;-74
2023/08/07 06:21:53;;;;;;;15.93;3.83;;;;;;;;;;5055588;28;20126;-74
2023/08/07 06:24:20;;;;;;;19.05;3.53;;;;;;;;;;5043946;28;20082;-75
2023/08/07 06:26:46;;;;;;;6.45;2.95;;;;;;;;;;5028505;28;20036;-75
2023/08/07 06:29:11;;;;;;;15.48;4.53;;;;;;;;;;5060755;28;20045;-75
2023/08/07 06:31:37;;;;;;;10.57;3.65;;;15.20;99.90;;;;;;5064680;28;20134;-75
2023/08/07 06:34:03;;;;;;;11.38;3.05;;;;;;;;;;5034224;28;20398;-75
2023/08/07 06:36:29;;;;;;;16.75;4.40;;;15.40;99.90;;;;;;5059675;28;20643;-74
2023/08/07 06:38:55;;;;;;;17.40;4.15;;;;;;;;;;5041271;28;20036;-76
2023/08/07 06:41:20;;;;;;;12.43;3.90;;;;;;;;;;5038875;28;20052;-75
2023/08/07 06:43:47;;;;;;;19.77;3.97;;;;;;;;;;5046988;28;20044;-74
2023/08/07 06:46:13;;;;;;;14.80;3.50;;;;;;;;;;5044884;28;20394;-75
2023/08/07 06:48:39;;;;;;;11.50;2.92;;;;;;;;;;5054566;28;20040;-72
2023/08/07 06:51:05;;;;;;;10.00;2.78;;;;;;;;;;5042142;28;20063;-76
2023/08/07 06:53:31;;;;;;;16.95;3.60;;;;;;;;;;5057603;28;20451;-77
2023/08/07 06:55:57;;;;;;;13.27;3.55;;;;;;;;;;5059040;28;20048;-76
2023/08/07 06:58:23;;;;;;;11.63;2.58;;;;;;;;;;5058424;28;20102;-76
2023/08/07 07:00:49;;;;;;;14.93;3.03;;;;;;;;;;5036530;28;20063;-75
2023/08/07 07:03:14;;;;;;;11.38;2.67;;;15.80;99.90;;;;;;5062954;28;20044;-74
2023/08/07 07:05:42;;;;;;;10.98;2.55;;;15.80;99.90;;;;;;5028830;28;20440;-75
2023/08/07 07:08:10;;;;;;;9.70;2.55;;;;;;;;;;5027629;28;20118;-77
2023/08/07 07:10:41;;;;;;;11.88;2.78;;;;;;;;;;5063017;28;20050;-75
2023/08/07 07:13:09;;;;;;;6.15;2.78;;;;;;;;;;5082965;28;20525;-75
2023/08/07 07:15:35;;;;;;;9.32;2.17;;;;;;;;;;5077350;28;20048;-76
2023/08/07 07:18:01;;;;;;;10.55;2.42;;;;;;;;;;5064341;28;20048;-76
2023/08/07 07:20:27;;;;;;;11.20;2.45;;;;;;;;;;5080544;28;20122;-76
2023/08/07 07:22:53;;;;;;;10.43;2.60;;;;;;;;;;5066489;28;20733;-76
2023/08/07 07:25:20;;;;;;;11.05;3.13;;;;;;;;;;5060644;28;20047;-76
2023/08/07 07:31:29;;;;;;;15.25;3.83;;;;;;;;;;5084187;28;20105;-75
2023/08/07 07:33:55;;;;;;;4.65;1.70;;;;;;;;;;5078841;28;20043;-75
2023/08/07 07:36:21;;;;;;;5.80;1.55;;;;;;;;;;5079581;28;20036;-76
2023/08/07 07:38:48;;;;;;;6.03;1.17;;;;;;;;;;5078391;28;20047;-77
2023/08/07 07:41:14;;;;;;;4.75;1.52;;;15.40;99.90;;;;;;5080519;28;20161;-76
2023/08/07 07:43:41;;;;;;;5.43;1.70;;;;;;;;;;5080989;28;20533;-75
2023/08/07 07:46:07;;;;;;;6.03;1.50;;;;;;;;;;5079797;28;20039;-73
2023/08/07 07:48:33;;;;;;;5.47;1.42;;;;;;;;;;5084319;28;20489;-74
2023/08/07 07:51:03;;;;;;;8.52;1.60;;;15.30;99.90;;;;;;5082874;28;20040;-73
2023/08/07 07:53:29;;;;;;;5.63;1.70;;;;;;;;;;5075645;28;20100;-74
2023/08/07 07:55:55;;;;;;;7.07;1.88;;;;;;;;;;5081851;28;20044;-76
2023/08/07 07:58:21;;;;;;;8.30;1.60;;;15.80;99.90;;;;;;5080354;28;20086;-75
2023/08/07 08:01:23;;;;;;;6.80;2.17;;;15.80;99.90;;;;;;5081819;28;20044;-81
2023/08/07 08:03:49;;;;;;;6.63;2.20;;;;;;;;;;5081258;28;20126;-77
2023/08/07 08:10:18;;;;;;;9.30;2.20;;;16.30;99.90;;;;;;5081729;28;20117;-77
2023/08/07 08:13:10;;;;;;;12.32;2.50;;;16.50;99.90;;;;;;5070656;28;20068;-74
2023/08/07 08:16:47;;;;;;;9.52;2.33;;;16.40;99.90;;;;;;5017004;28;20044;-78
2023/08/07 08:19:55;;;;;;;8.57;1.85;;;16.10;99.90;;;;;;5001500;28;20037;-79
2023/08/07 08:22:21;;;;;;;7.97;2.78;;;;;;;;;;5012360;28;20613;-73
2023/08/07 08:25:23;;;;;;;6.97;1.95;;;15.80;99.90;;;;;;5000131;28;20037;-76
2023/08/07 08:27:50;;;;;;;6.65;2.17;;;;;;;;;;5022076;28;20037;-73
2023/08/07 08:31:10;;;;;;;7.85;2.25;;;16.30;99.90;;;;;;5019001;28;20128;-74
2023/08/07 08:34:35;;;;;;;8.52;2.25;;;16.30;99.90;;;;;;4942093;29;20256;-77
2023/08/07 08:37:40;;;;;;;8.98;2.42;;;;;;;;;;4906843;29;20059;-78
2023/08/07 08:44:13;;;;;;;8.02;2.25;;;16.40;99.90;;;;;;4909887;29;20934;-76
2023/08/07 08:57:45;;;;;;;11.35;2.60;;;16.80;99.90;;;;;;4907520;29;20043;-75
2023/08/07 09:00:17;;;;;;;11.93;2.53;;;16.90;99.90;;;;;;4887779;29;20060;-74
2023/08/07 09:02:45;;;;;;;10.10;3.20;;;17.00;99.90;;;;;;4949438;28;20062;-80
2023/08/07 09:05:14;;;;;;;12.82;2.97;;;17.00;99.90;;;;;;4974634;28;20244;-80
2023/08/07 09:07:40;;;;;;;12.80;2.80;;;;;;;;;;5019657;28;20052;-75
2023/08/07 09:10:06;;;;;;;6.07;2.08;;;;;;;;;;5020290;28;20045;-76
2023/08/07 09:21:23;;;;;;;13.25;2.75;;;17.30;99.90;;;;;;4996757;28;20049;-76
2023/08/07 09:24:53;;;;;;;10.68;2.40;;;17.10;99.90;;;;;;5057890;28;20212;-74
2023/08/07 09:29:04;;;;;;;;;;;;;;;;;;;;;
2023/08/07 09:32:12;;;;;;;9.23;2.25;;;17.10;99.90;;;;;;4996385;28;20040;-73
2023/08/07 09:39:18;;;;;;;13.32;1.95;;;17.20;99.90;;;;;;5003550;28;20064;-77
2023/08/07 09:43:08;;;;;;;9.57;2.75;;;17.30;99.90;;;;;;4950885;28;20050;-74
2023/08/07 09:46:37;;;;;;;7.35;2.47;;;17.40;99.90;;;;;;4929451;29;20070;-73
2023/08/07 09:49:39;;;;;;;8.68;2.63;;;17.50;99.90;;;;;;4928384;28;20055;-72
2023/08/07 09:59:33;;;;;;;10.43;1.98;;;17.50;99.90;;;;;;4880866;29;20077;-74
2023/08/07 10:05:46;;;;;;;7.75;2.30;;;17.80;99.90;;;;;;4901955;29;20108;-79
2023/08/07 10:08:12;;;;;;;6.18;1.65;;;;;;;;;;4913720;29;20593;-76
2023/08/07 10:10:41;;;;;;;7.50;1.92;;;;;;;;;;4896032;29;20907;-77
2023/08/07 10:13:08;;;;;;;8.25;2.25;;;17.60;99.90;;;;;;4944571;28;20233;-77
2023/08/07 10:15:37;;;;;;;8.45;2.72;;;;;;;;;;4966303;28;20046;-76
2023/08/07 10:18:04;;;;;;;8.60;1.95;;;;;;;;;;4995592;28;20061;-76
2023/08/07 10:20:30;;;;;;;7.10;2.47;;;;;;;;;;4978506;28;20050;-76
2023/08/07 10:23:08;;;;;;;6.10;1.75;;;17.10;99.90;;;;;;5009089;28;20059;-77
2023/08/07 10:25:37;;;;;;;7.20;1.65;;;17.20;99.90;;;;;;5035600;28;20087;-77
2023/08/07 10:28:06;;;;;;;8.65;1.83;;;17.00;99.90;;;;;;5081233;28;20032;-78
2023/08/07 10:30:33;;;;;;;8.05;2.42;;;17.10;99.90;;;;;;5046874;28;20055;-77
2023/08/07 10:32:59;;;;;;;8.35;2.47;;;17.10;99.90;;;;;;5062377;28;20127;-77
2023/08/07 10:35:33;;;;;;;5.95;1.92;;;17.50;99.90;;;;;;5068978;28;20047;-77
2023/08/07 10:38:08;;;;;;;5.03;2.97;;;17.40;99.90;;;;;;5063852;28;20535;-77
2023/08/07 10:40:37;;;;;;;6.63;1.75;;;;;;;;;;5082733;28;20036;-79
2023/08/07 10:43:06;;;;;;;11.10;2.08;;;17.70;99.90;;;;;;5067034;28;20044;-78
2023/08/07 10:45:34;;;;;;;14.45;2.42;;;17.90;99.90;;;;;;5085369;28;20115;-77
2023/08/07 10:48:07;;;;;;;12.35;2.13;;;17.60;99.90;;;;;;5070213;28;20036;-76
2023/08/07 10:50:46;;;;;;;5.68;1.73;;;17.80;99.90;;;;;;5083207;28;20051;-76
2023/08/07 10:53:20;;;;;;;7.43;1.85;;;17.40;99.90;;;;;;5040776;28;20039;-75
2023/08/07 10:55:47;;;;;;;7.28;1.60;;;;;;;;;;5068747;28;20052;-75
2023/08/07 10:58:28;;;;;;;5.28;1.65;;;17.80;99.90;;;;;;5064876;28;20051;-75
2023/08/07 11:01:19;;;;;;;5.65;1.50;;;17.80;99.90;;;;;;5084259;28;20084;-75
2023/08/07 11:03:46;;;;;;;10.65;2.65;;;;;;;;;;5050859;28;20044;-74
2023/08/07 11:06:12;;;;;;;6.00;1.52;;;;;;;;;;5065985;28;20044;-76
2023/08/07 11:08:38;;;;;;;11.90;2.17;;;;;;;;;;5085401;28;20048;-77
2023/08/07 11:11:05;;;;;;;8.32;1.50;;;17.80;99.90;;;;;;5076570;28;20667;-76
2023/08/07 11:13:31;;;;;;;3.55;1.17;;;;;;;;;;5047926;28;20070;-77
2023/08/07 11:15:57;;;;;;;6.68;1.70;;;;;;;;;;5058761;28;20127;-76
2023/08/07 11:18:23;;;;;;;4.47;2.45;;;;;;;;;;5065431;28;20047;-76
2023/08/07 11:20:49;;;;;;;6.72;1.25;;;;;;;;;;5067410;28;20047;-76
2023/08/07 11:23:15;;;;;;;4.82;1.45;;;;;;;;;;5089698;28;20032;-77
2023/08/07 11:25:41;;;;;;;5.07;1.92;;;18.00;99.90;;;;;;5077889;28;20041;-79
2023/08/07 11:28:10;;;;;;;7.80;1.63;;;17.80;99.90;;;;;;5071667;28;20113;-78
2023/08/07 11:30:36;;;;;;;7.95;1.75;;;;;;;;;;5082487;28;20040;-78
2023/08/07 11:33:02;;;;;;;5.40;2.25;;;;;;;;;;5060781;28;20055;-78
2023/08/07 11:35:29;;;;;;;9.45;1.55;;;17.90;99.90;;;;;;5074430;28;20047;-77
2023/08/07 11:38:03;;;;;;;7.78;1.98;;;;;;;;;;5061647;28;20481;-78
2023/08/07 11:40:29;;;;;;;5.32;1.50;;;;;;;;;;5070414;28;20051;-77
2023/08/07 11:42:54;;;;;;;6.38;1.67;;;;;;;;;;5064698;28;20044;-78
2023/08/07 11:45:21;;;;;;;4.78;1.95;;;;;;;;;;5071252;28;20110;-76
2023/08/07 11:47:47;;;;;;;4.20;1.60;;;;;;;;;;5084649;28;20127;-78
2023/08/07 11:50:17;;;;;;;5.85;1.73;;;17.80;99.90;;;;;;5062902;28;20097;-76
2023/08/07 11:52:43;;;;;;;7.40;1.75;;;;;;;;;;5071159;28;20052;-76
2023/08/07 11:55:09;;;;;;;7.00;1.95;;;18.00;99.90;;;;;;5080784;28;20119;-75
2023/08/07 11:57:38;;;;;;;6.50;2.08;;;18.00;99.90;;;;;;5077043;28;20131;-75
2023/08/07 12:00:12;;;;;;;5.05;1.80;;;17.80;99.90;;;;;;5071915;28;20157;-75
2023/08/07 12:02:49;;;;;;;6.57;1.30;;;17.40;99.90;;;;;;5065304;28;20413;-76
2023/08/07 12:05:21;;;;;;;7.22;1.67;;;;;;;;;;5070357;28;20413;-76
2023/08/07 12:07:51;;;;;;;6.53;1.48;;;;;;;;;;5088675;28;20039;-77
2023/08/07 12:10:17;;;;;;;7.65;1.33;;;;;;;;;;5070918;28;20106;-76
2023/08/07 12:12:44;;;;;;;4.80;1.50;;;;;;;;;;5084332;28;20446;-76
2023/08/07 12:15:10;;;;;;;6.55;1.23;;;;;;;;;;5072999;28;20048;-77
2023/08/07 12:17:37;;;;;;;6.35;1.40;;;17.50;99.90;;;;;;5071220;28;20494;-78
2023/08/07 12:20:07;;;;;;;5.70;1.85;;;17.50;99.90;;;;;;5089389;28;20043;-76
2023/08/07 12:22:33;;;;;;;7.85;1.63;;;;;;;;;;5053647;28;20035;-76
2023/08/07 12:24:59;;;;;;;4.55;1.38;;;;;;;;;;5050577;28;20047;-78
2023/08/07 12:27:26;;;;;;;5.07;1.58;;;;;;;;;;5071632;28;20147;-75
2023/08/07 12:29:52;;;;;;;5.85;1.65;;;;;;;;;;5064708;28;20042;-74
2023/08/07 12:32:17;;;;;;;7.88;1.88;;;;;;;;;;5071874;28;20040;-74
2023/08/07 12:34:44;;;;;;;5.55;1.48;;;;;;;;;;5067830;28;20134;-76
2023/08/07 12:37:09;;;;;;;6.55;1.40;;;;;;;;;;5069546;28;20066;-75
2023/08/07 12:39:35;;;;;;;5.63;1.33;;;17.20;99.90;;;;;;5087479;28;20485;-74
2023/08/07 12:42:04;;;;;;;8.52;1.55;;;;;;;;;;5066019;28;20040;-76
2023/08/07 12:44:30;;;;;;;3.47;1.50;;;16.90;99.90;;;;;;5086711;28;20098;-75
2023/08/07 12:46:56;;;;;;;4.85;1.23;;;;;;;;;;5070253;28;20032;-76
2023/08/07 12:49:22;;;;;;;4.00;1.40;;;;;;;;;;5078322;28;20044;-76
2023/08/07 12:51:48;;;;;;;3.35;1.67;;;;;;;;;;5086246;28;20048;-75
2023/08/07 12:54:14;;;;;;;3.42;1.40;;;;;;;;;;5068951;28;20043;-74
2023/08/07 12:56:40;;;;;;;7.13;1.40;;;;;;;;;;5086110;28;20512;-76
2023/08/07 12:59:07;;;;;;;7.13;1.83;;;;;;;;;;5068351;28;20398;-75
2023/08/07 13:01:33;;;;;;;4.75;1.88;;;;;;;;;;5088447;28;20040;-76
2023/08/07 13:03:59;;;;;;;6.45;1.90;;;;;;;;;;5075764;28;20421;-75
2023/08/07 13:06:25;;;;;;;6.57;1.50;;;;;;;;;;5073208;28;20040;-76
2023/08/07 13:08:50;;;;;;;6.03;1.67;;;17.20;99.90;;;;;;5067410;28;20382;-75
2023/08/07 13:11:16;;;;;;;7.82;2.00;;;;;;;;;;5070801;28;20044;-74
2023/08/07 13:13:42;;;;;;;7.90;2.58;;;;;;;;;;5072918;28;20711;-76
2023/08/07 13:16:08;;;;;;;9.02;2.38;;;;;;;;;;5088298;28;20058;-76
2023/08/07 13:18:34;;;;;;;8.85;2.17;;;;;;;;;;5082686;28;20465;-76
2023/08/07 13:21:01;;;;;;;9.80;2.08;;;;;;;;;;5082787;28;20044;-75
2023/08/07 13:23:27;;;;;;;8.13;2.50;;;;;;;;;;5069966;28;20160;-74
2023/08/07 13:25:53;;;;;;;6.28;2.05;;;;;;;;;;5082563;28;20050;-75
2023/08/07 13:28:18;;;;;;;9.88;2.28;;;;;;;;;;5068155;28;20429;-76
2023/08/07 13:30:44;;;;;;;6.72;2.55;;;;;;;;;;5085789;28;20039;-74
2023/08/07 13:33:10;;;;;;;6.10;2.92;;;;;;;;;;5084990;28;20489;-77
2023/08/07 13:35:37;;;;;;;5.28;2.22;;;;;;;;;;5084987;28;20051;-77
2023/08/07 13:38:05;;;;;;;10.50;2.50;;;;;;;;;;5082271;28;20047;-75
2023/08/07 13:40:31;;;;;;;5.97;2.03;;;;;;;;;;5087866;28;20056;-76
2023/08/07 13:42:58;;;;;;;8.13;2.55;;;;;;;;;;5081565;28;20292;-77
2023/08/07 13:45:24;;;;;;;10.50;2.70;;;;;;;;;;5085047;28;20093;-76
2023/08/07 13:47:51;;;;;;;9.45;3.00;;;;;;;;;;5061500;28;20036;-76
2023/08/07 13:50:16;;;;;;;10.40;2.90;;;18.00;99.90;;;;;;5088195;28;20054;-77
2023/08/07 13:52:42;;;;;;;7.90;2.83;;;;;;;;;;5087294;28;20063;-75
2023/08/07 13:55:09;;;;;;;9.18;2.28;;;18.30;99.90;;;;;;5086227;28;20070;-76
2023/08/07 13:57:34;;;;;;;7.13;2.20;;;18.20;99.90;;;;;;5086358;28;20117;-76
2023/08/07 14:00:00;;;;;;;10.18;2.50;;;;;;;;;;5086552;28;20044;-76
2023/08/07 14:02:26;;;;;;;6.38;2.65;;;;;;;;;;5085622;28;20036;-74
2023/08/07 14:04:52;;;;;;;4.35;1.85;;;18.00;99.90;;;;;;5067034;28;20035;-74
2023/08/07 14:07:18;;;;;;;6.97;1.75;;;;;;;;;;5083982;28;20044;-75
2023/08/07 14:09:44;;;;;;;8.10;1.60;;;;;;;;;;5085023;28;20090;-76
2023/08/07 14:12:10;;;;;;;10.80;2.13;;;;;;;;;;5067548;28;20039;-77
2023/08/07 14:14:36;;;;;;;7.95;2.20;;;;;;;;;;5085977;28;20063;-76
2023/08/07 14:17:02;;;;;;;8.52;2.20;;;18.40;99.90;;;;;;5068502;28;20093;-75
2023/08/07 14:19:27;;;;;;;9.52;1.98;;;18.60;99.90;;;;;;5086913;28;20060;-76
2023/08/07 14:21:53;;;;;;;7.38;1.73;;;;;;;;;;5068008;28;20047;-79
2023/08/07 14:24:19;;;;;;;8.40;2.20;;;;;;;;;;5072624;28;20740;-76
2023/08/07 14:26:45;;;;;;;8.98;2.13;;;;;;;;;;5068823;28;20040;-76
2023/08/07 14:29:11;;;;;;;8.18;1.80;;;;;;;;;;5069461;28;20793;-74
2023/08/07 14:31:37;;;;;;;10.25;2.38;;;19.00;99.90;;;;;;5087368;28;20036;-77
2023/08/07 14:34:02;;;;;;;5.75;1.88;;;18.90;99.90;;;;;;5053067;28;20053;-78
2023/08/07 14:36:28;;;;;;;4.55;1.42;;;;;;;;;;5068038;28;20052;-74
2023/08/07 14:38:54;;;;;;;4.78;1.83;;;18.60;99.90;;;;;;5078522;28;20047;-74
2023/08/07 14:41:20;;;;;;;6.25;1.70;;;;;;;;;;5084075;28;20083;-75
2023/08/07 14:43:46;;;;;;;4.40;1.63;;;;;;;;;;5062012;28;20404;-75
2023/08/07 14:46:13;;;;;;;4.55;1.65;;;18.20;99.90;;;;;;5064993;28;20040;-75
2023/08/07 14:48:39;;;;;;;7.53;1.58;;;;;;;;;;5062894;28;20744;-75
2023/08/07 14:51:05;;;;;;;6.88;1.40;;;18.30;99.90;;;;;;5051123;28;20048;-75